Ilford, Canada
Current Conditions -  °F | °C
As of 10:00 AM on Tuesday 21 Oct 2014 (Local Time) from CYGX Reporting Station
Few Clouds Few Clouds  
Wind Chill: 33°   Ceiling: Unl
Heat Index: 41°   Visibility: 15mi
Dew Point: 36°   Wind: 15mph
Humidity: 81%   Direction: 190°S
Pressure: 29.79"   Gusts: 22mph
Location:  56.04°N, 95.58°W
Report Text: CYGX 211500Z 19013G19KT 15SM FEW007 05/02 A2979 RMK SF2 SLP096
Loading
Personal Weather Stations






























Interactive Weather Map
Tropical Storm Tracking
New forecast layout! Learn more

10-Day Weather Forecast

Advertisements
Track Severe Weather on mobile